Time;durP1;ratioP1;P1;durP2;ratioP2;P2;SDS_P1;SDS_P2;PMS_P1;PMS_P2;Temp;Humidity;BMP_temperature;BMP_pressure;BME280_temperature;BME280_humidity;BME280_pressure;Samples;Min_cycle;Max_cycle;Signal;HPM_P1;HPM_P2
2020/12/15 00:00:32;;;;;;;15.63;1.55;;;;;;;;;;5043242;28;20028;-50
2020/12/15 00:02:59;;;;;;;12.45;1.85;;;;;;;;;;5049660;28;20033;-50
2020/12/15 00:05:26;;;;;;;13.75;1.60;;;;;;;;;;5050204;28;20075;-48
2020/12/15 00:07:52;;;;;;;16.15;1.63;;;;;;;;;;5049085;28;20021;-51
2020/12/15 00:10:20;;;;;;;16.67;1.70;;;;;;;;;;5036164;28;20050;-49
2020/12/15 00:12:47;;;;;;;13.60;1.20;;;;;;;;;;5048915;28;20029;-51
2020/12/15 00:15:14;;;;;;;12.27;2.25;;;;;;;;;;5037998;28;20052;-51
2020/12/15 00:17:41;;;;;;;12.65;1.35;;;;;;;;;;5049894;28;20025;-48
2020/12/15 00:20:09;;;;;;;17.40;1.95;;;;;;;;;;5047909;28;20083;-49
2020/12/15 00:22:36;;;;;;;19.73;2.97;;;;;;;;;;5038103;28;20071;-52
2020/12/15 00:25:04;;;;;;;10.80;1.00;;;;;;;;;;5050328;28;20025;-53
2020/12/15 00:27:31;;;;;;;9.38;1.75;;;;;;;;;;5049044;28;20048;-54
2020/12/15 00:29:59;;;;;;;13.45;1.70;;;;;;;;;;5048639;28;20271;-49
2020/12/15 00:32:26;;;;;;;17.30;1.27;;;;;;;;;;5047945;28;20021;-53
2020/12/15 00:34:53;;;;;;;17.25;1.48;;;;;;;;;;5050029;28;20020;-50
2020/12/15 00:37:20;;;;;;;29.40;2.35;;;;;;;;;;5048928;28;20017;-53
2020/12/15 00:39:47;;;;;;;18.17;1.33;;;;;;;;;;5049213;28;20045;-51
2020/12/15 00:42:14;;;;;;;22.15;1.67;;;;;;;;;;5048537;28;20025;-53
2020/12/15 00:44:41;;;;;;;15.00;1.50;;;;;;;;;;5048859;28;20036;-54
2020/12/15 00:47:08;;;;;;;26.00;2.95;;;;;;;;;;5028239;28;20028;-50
2020/12/15 00:49:35;;;;;;;19.90;2.88;;;;;;;;;;5031464;28;20040;-61
2020/12/15 00:52:02;;;;;;;20.30;2.78;;;;;;;;;;5046425;28;20032;-59
2020/12/15 00:54:29;;;;;;;23.23;2.83;;;;;;;;;;5039429;28;20503;-60
2020/12/15 00:56:56;;;;;;;36.67;3.30;;;;;;;;;;5035086;28;20629;-47
2020/12/15 01:02:26;;;;;;;23.27;2.33;;;;;;;;;;5029939;28;20040;-58
2020/12/15 01:04:55;;;;;;;30.33;2.35;;;;;;;;;;5039081;28;20029;-53
2020/12/15 01:07:22;;;;;;;30.95;3.10;;;;;;;;;;5050348;28;20017;-53
2020/12/15 01:09:49;;;;;;;30.88;2.92;;;;;;;;;;5048315;28;20082;-52
2020/12/15 01:12:16;;;;;;;27.30;3.08;;;;;;;;;;5048049;28;20487;-47
2020/12/15 01:14:43;;;;;;;32.25;3.17;;;;;;;;;;5048627;28;20037;-46
2020/12/15 01:17:10;;;;;;;26.63;3.50;;;;;;;;;;5049348;28;20036;-46
2020/12/15 01:19:37;;;;;;;19.35;3.30;;;;;;;;;;5051369;28;20029;-45
2020/12/15 01:22:04;;;;;;;31.63;2.80;;;;;;;;;;5052441;28;20032;-49
2020/12/15 01:24:31;;;;;;;26.80;3.80;;;;;;;;;;5052843;28;20495;-47
2020/12/15 01:26:58;;;;;;;29.25;3.40;;;;;;;;;;5052613;28;20021;-47
2020/12/15 01:29:25;;;;;;;24.92;2.70;;;;;;;;;;5052933;28;20021;-46
2020/12/15 01:31:52;;;;;;;25.02;3.88;;;;;;;;;;5043851;28;20038;-47
2020/12/15 01:34:19;;;;;;;22.27;3.22;;;;;;;;;;5051038;28;20423;-46
2020/12/15 01:36:47;;;;;;;32.47;2.95;;;;;;;;;;5052870;28;20036;-45
2020/12/15 01:39:14;;;;;;;20.10;3.22;;;;;;;;;;5052532;28;20056;-47
2020/12/15 01:41:41;;;;;;;21.73;3.15;;;;;;;;;;5052119;28;20021;-45
2020/12/15 01:44:08;;;;;;;19.88;2.17;;;;;;;;;;5050617;28;20026;-42
2020/12/15 01:46:35;;;;;;;19.45;2.15;;;;;;;;;;5045082;28;20375;-43
2020/12/15 01:49:02;;;;;;;25.15;2.35;;;;;;;;;;5053129;28;20021;-43
2020/12/15 01:51:30;;;;;;;9.10;1.63;;;;;;;;;;5052511;28;20463;-43
2020/12/15 01:53:58;;;;;;;22.85;2.00;;;;;;;;;;5052646;28;20052;-42
2020/12/15 01:56:26;;;;;;;13.95;1.92;;;;;;;;;;5052840;28;20125;-44
2020/12/15 01:58:56;;;;;;;19.33;1.48;;;;;;;;;;5052379;28;20588;-43
2020/12/15 02:01:24;;;;;;;13.45;2.55;;;;;;;;;;5052906;28;20017;-44
2020/12/15 02:03:52;;;;;;;14.00;1.75;;;;;;;;;;5051944;28;20441;-44
2020/12/15 02:06:20;;;;;;;8.80;1.27;;;;;;;;;;5052192;28;20025;-43
2020/12/15 02:08:48;;;;;;;30.40;3.80;;;;;;;;;;5035818;28;20041;-47
2020/12/15 02:11:15;;;;;;;16.63;2.80;;;;;;;;;;5049004;28;20112;-45
2020/12/15 02:13:43;;;;;;;18.95;2.40;;;;;;;;;;5051543;28;20040;-46
2020/12/15 02:16:10;;;;;;;17.00;2.42;;;;;;;;;;5051845;28;20023;-45
2020/12/15 02:18:38;;;;;;;21.60;2.90;;;;;;;;;;5051312;28;20664;-46
2020/12/15 02:21:06;;;;;;;18.50;2.80;;;;;;;;;;5043948;28;20024;-45
2020/12/15 02:23:33;;;;;;;18.67;2.80;;;;;;;;;;5050660;28;20107;-47
2020/12/15 02:26:04;;;;;;;17.40;2.50;;;;;;;;;;5040941;28;20024;-47
2020/12/15 02:28:31;;;;;;;11.13;2.33;;;;;;;;;;5050829;28;20028;-46
2020/12/15 02:30:58;;;;;;;19.85;2.42;;;;;;;;;;5033635;28;20109;-46
2020/12/15 02:33:25;;;;;;;20.98;2.50;;;;;;;;;;5045290;28;20147;-47
2020/12/15 02:35:53;;;;;;;18.33;2.60;;;;;;;;;;5039680;28;20354;-46
2020/12/15 02:38:20;;;;;;;23.17;2.40;;;;;;;;;;5048127;28;20076;-46
2020/12/15 02:40:47;;;;;;;15.38;1.73;;;;;;;;;;5050228;28;20029;-49
2020/12/15 02:43:14;;;;;;;31.42;2.38;;;;;;;;;;5050983;28;20501;-46
2020/12/15 02:45:41;;;;;;;12.00;1.42;;;;;;;;;;5050306;28;20068;-46
2020/12/15 02:48:08;;;;;;;19.38;2.15;;;;;;;;;;5022984;28;20515;-45
2020/12/15 02:50:36;;;;;;;17.15;1.60;;;;;;;;;;5051107;28;20033;-47
2020/12/15 02:53:03;;;;;;;28.40;1.90;;;;;;;;;;5050517;28;20075;-46
2020/12/15 02:55:30;;;;;;;18.42;1.10;;;;;;;;;;5051354;28;20028;-46
2020/12/15 02:57:57;;;;;;;16.92;1.52;;;;;;;;;;5051667;28;20449;-43
2020/12/15 03:00:24;;;;;;;19.48;1.20;;;;;;;;;;5051163;28;20029;-43
2020/12/15 03:02:51;;;;;;;20.30;1.10;;;;;;;;;;5051190;28;20488;-43
2020/12/15 03:05:18;;;;;;;22.90;2.13;;;;;;;;;;5050443;28;20602;-45
2020/12/15 03:07:45;;;;;;;18.90;1.23;;;;;;;;;;5051537;28;20143;-44
2020/12/15 03:10:12;;;;;;;15.95;1.48;;;;;;;;;;5049846;28;20028;-43
2020/12/15 03:12:39;;;;;;;8.80;1.08;;;;;;;;;;5051539;28;20074;-42
2020/12/15 03:15:06;;;;;;;20.55;1.10;;;;;;;;;;5051200;28;20017;-43
2020/12/15 03:17:33;;;;;;;29.50;0.90;;;;;;;;;;5051161;28;20031;-43
2020/12/15 03:20:00;;;;;;;32.38;2.85;;;;;;;;;;5050329;28;20047;-45
2020/12/15 03:22:27;;;;;;;15.30;1.17;;;;;;;;;;5050129;28;20024;-43
2020/12/15 03:24:54;;;;;;;23.48;1.17;;;;;;;;;;5044998;28;20106;-43
2020/12/15 03:27:21;;;;;;;7.22;0.77;;;;;;;;;;5046702;28;20020;-43
2020/12/15 03:29:48;;;;;;;21.98;1.85;;;;;;;;;;5050363;28;20021;-43
2020/12/15 03:32:15;;;;;;;12.05;1.25;;;;;;;;;;5044912;28;20012;-43
2020/12/15 03:34:42;;;;;;;11.88;1.02;;;;;;;;;;5036914;28;20113;-43
2020/12/15 03:37:09;;;;;;;13.43;0.98;;;;;;;;;;5030377;28;20029;-43
2020/12/15 03:39:36;;;;;;;15.77;1.08;;;;;;;;;;5033321;28;20056;-46
2020/12/15 03:42:03;;;;;;;14.85;0.88;;;;;;;;;;5042039;28;20499;-44
2020/12/15 03:44:30;;;;;;;9.88;0.90;;;;;;;;;;5040746;28;20100;-47
2020/12/15 03:46:57;;;;;;;17.20;1.58;;;;;;;;;;5041896;28;20025;-42
2020/12/15 03:49:24;;;;;;;16.80;1.08;;;;;;;;;;5040790;28;20037;-45
2020/12/15 03:51:51;;;;;;;12.05;1.20;;;;;;;;;;5030934;28;20124;-44
2020/12/15 03:54:18;;;;;;;10.10;1.10;;;;;;;;;;5028989;28;20053;-44
2020/12/15 03:56:45;;;;;;;23.27;1.55;;;;;;;;;;5030246;28;20117;-45
2020/12/15 03:59:12;;;;;;;30.95;1.92;;;;;;;;;;5030668;28;20025;-44
2020/12/15 04:01:39;;;;;;;16.27;1.52;;;;;;;;;;5031425;28;20028;-46
2020/12/15 04:04:06;;;;;;;18.60;1.40;;;;;;;;;;5029749;28;20021;-45
2020/12/15 04:06:33;;;;;;;59.60;3.42;;;;;;;;;;5031809;28;20026;-44
2020/12/15 04:09:00;;;;;;;36.20;3.28;;;;;;;;;;5031933;28;20071;-46
2020/12/15 04:11:27;;;;;;;20.20;1.42;;;;;;;;;;5031469;28;20159;-46
2020/12/15 04:13:54;;;;;;;14.30;1.73;;;;;;;;;;5031864;28;20025;-45
2020/12/15 04:16:21;;;;;;;26.27;1.48;;;;;;;;;;5031305;28;20108;-44
2020/12/15 04:18:48;;;;;;;11.20;0.95;;;;;;;;;;5031383;28;20025;-44
2020/12/15 04:21:15;;;;;;;7.30;1.83;;;;;;;;;;5031394;28;20480;-46
2020/12/15 04:23:43;;;;;;;16.65;1.35;;;;;;;;;;5043771;28;20029;-45
2020/12/15 04:26:10;;;;;;;10.38;1.38;;;;;;;;;;5051500;28;20040;-45
2020/12/15 04:28:37;;;;;;;25.40;1.38;;;;;;;;;;5051404;28;20040;-46
2020/12/15 04:31:03;;;;;;;27.55;1.10;;;;;;;;;;5051889;28;20021;-46
2020/12/15 04:33:30;;;;;;;28.60;2.35;;;;;;;;;;5046577;28;20094;-45
2020/12/15 04:35:57;;;;;;;28.50;2.80;;;;;;;;;;5050116;28;20061;-44
2020/12/15 04:38:24;;;;;;;17.00;1.73;;;;;;;;;;5051138;28;20044;-46
2020/12/15 04:40:51;;;;;;;20.65;1.80;;;;;;;;;;5050936;28;20025;-45
2020/12/15 04:43:19;;;;;;;23.38;2.35;;;;;;;;;;5050873;28;20021;-46
2020/12/15 04:45:46;;;;;;;26.52;2.53;;;;;;;;;;5050510;28;20052;-44
2020/12/15 04:48:16;;;;;;;16.75;1.38;;;;;;;;;;5050067;28;20104;-43
2020/12/15 04:50:44;;;;;;;13.02;1.23;;;;;;;;;;5050444;28;20103;-46
2020/12/15 04:53:12;;;;;;;15.15;1.35;;;;;;;;;;5050485;28;20041;-44
2020/12/15 04:55:40;;;;;;;10.10;0.55;;;;;;;;;;5054190;28;20013;-46
2020/12/15 04:58:07;;;;;;;9.82;0.77;;;;;;;;;;5054320;28;20025;-44
2020/12/15 05:00:35;;;;;;;7.07;0.60;;;;;;;;;;5054644;28;20021;-44
2020/12/15 05:03:03;;;;;;;16.63;0.82;;;;;;;;;;5054111;28;20350;-46
2020/12/15 05:05:31;;;;;;;20.45;0.73;;;;;;;;;;5053668;28;20080;-45
2020/12/15 05:08:02;;;;;;;17.52;0.85;;;;;;;;;;5053809;28;20434;-45
2020/12/15 05:10:29;;;;;;;11.15;0.80;;;;;;;;;;5054189;28;20032;-45
2020/12/15 05:12:56;;;;;;;16.13;1.05;;;;;;;;;;5053450;28;20090;-45
2020/12/15 05:15:23;;;;;;;11.35;1.20;;;;;;;;;;5054251;28;20146;-45
2020/12/15 05:17:50;;;;;;;18.75;1.58;;;;;;;;;;5053653;28;20376;-42
2020/12/15 05:20:18;;;;;;;15.65;0.85;;;;;;;;;;5054276;28;20029;-49
2020/12/15 05:22:46;;;;;;;10.20;0.77;;;;;;;;;;5054328;28;20025;-45
2020/12/15 05:25:23;;;;;;;13.60;0.80;;;;;;;;;;5053995;28;20044;-45
2020/12/15 05:27:50;;;;;;;9.52;0.80;;;;;;;;;;5054210;28;20013;-43
2020/12/15 05:30:17;;;;;;;13.98;0.65;;;;;;;;;;5053686;28;20103;-44
2020/12/15 05:32:48;;;;;;;10.13;0.80;;;;;;;;;;5054198;28;20516;-44
2020/12/15 05:35:16;;;;;;;24.05;1.38;;;;;;;;;;5053855;28;20021;-44
2020/12/15 05:37:44;;;;;;;12.05;0.93;;;;;;;;;;5053571;28;20100;-44
2020/12/15 05:40:12;;;;;;;10.05;0.55;;;;;;;;;;5053230;28;20112;-46
2020/12/15 05:42:39;;;;;;;7.97;0.50;;;;;;;;;;5054168;28;20021;-44
2020/12/15 05:45:07;;;;;;;16.55;0.88;;;;;;;;;;5052887;28;20034;-44
2020/12/15 05:47:34;;;;;;;3.35;0.88;;;;;;;;;;5053435;28;20025;-44
2020/12/15 05:50:01;;;;;;;6.57;0.70;;;;;;;;;;5053341;28;20025;-44
2020/12/15 05:52:29;;;;;;;11.98;0.45;;;;;;;;;;5053437;28;20020;-44
2020/12/15 05:55:09;;;;;;;11.95;0.90;;;;;;;;;;5052771;28;20041;-44
2020/12/15 05:57:36;;;;;;;19.05;0.95;;;;;;;;;;5052848;28;20021;-48
2020/12/15 06:00:10;;;;;;;17.80;0.93;;;;;;;;;;5052975;28;20151;-44
2020/12/15 06:02:37;;;;;;;13.20;0.40;;;;;;;;;;5052719;28;20017;-44
2020/12/15 06:05:07;;;;;;;8.43;0.73;;;;;;;;;;5052264;28;20075;-42
2020/12/15 06:07:35;;;;;;;5.28;1.15;;;;;;;;;;5053210;28;20027;-45
2020/12/15 06:10:02;;;;;;;13.30;0.68;;;;;;;;;;5051989;28;20435;-44
2020/12/15 06:12:29;;;;;;;8.20;0.43;;;;;;;;;;5052390;28;20025;-43
2020/12/15 06:14:56;;;;;;;7.68;0.55;;;;;;;;;;5052953;28;20029;-43
2020/12/15 06:17:24;;;;;;;5.75;0.77;;;;;;;;;;5052599;28;20021;-43
2020/12/15 06:19:52;;;;;;;56.28;1.83;;;;;;;;;;5052814;28;20025;-44
2020/12/15 06:22:21;;;;;;;39.22;2.78;;;;;;;;;;5052236;28;20487;-45
2020/12/15 06:24:55;;;;;;;9.73;0.70;;;;;;;;;;5052490;28;20029;-43
2020/12/15 06:27:29;;;;;;;16.95;1.05;;;;;;;;;;5052503;28;20021;-44
2020/12/15 06:29:56;;;;;;;10.77;0.98;;;;;;;;;;5052725;28;20502;-45
2020/12/15 06:32:23;;;;;;;11.88;0.75;;;;;;;;;;5051522;28;20041;-44
2020/12/15 06:34:51;;;;;;;7.65;1.02;;;;;;;;;;5052764;28;20041;-45
2020/12/15 06:37:19;;;;;;;9.70;0.50;;;;;;;;;;5052603;28;20060;-47
2020/12/15 06:40:02;;;;;;;20.83;0.55;;;;;;;;;;5052752;28;20435;-44
2020/12/15 06:42:29;;;;;;;6.90;0.22;;;;;;;;;;5052577;28;20420;-46
2020/12/15 06:45:07;;;;;;;9.20;0.40;;;;;;;;;;5053022;28;20053;-43
2020/12/15 06:47:37;;;;;;;6.65;0.80;;;;;;;;;;5051758;28;20067;-44
2020/12/15 06:50:14;;;;;;;16.95;0.73;;;;;;;;;;5052584;28;20033;-44
2020/12/15 06:52:41;;;;;;;6.78;0.60;;;;;;;;;;5051959;28;20499;-45
2020/12/15 06:55:09;;;;;;;7.85;0.73;;;;;;;;;;5052837;28;20020;-46
2020/12/15 06:57:37;;;;;;;9.50;0.80;;;;;;;;;;5051705;28;20017;-43
2020/12/15 07:00:11;;;;;;;7.93;1.05;;;;;;;;;;5052720;28;20435;-45
2020/12/15 07:02:38;;;;;;;6.10;0.52;;;;;;;;;;5052054;28;20053;-43
2020/12/15 07:05:17;;;;;;;5.68;0.60;;;;;;;;;;5052596;28;20108;-43
2020/12/15 07:07:48;;;;;;;9.65;0.90;;;;;;;;;;5051930;28;20523;-43
2020/12/15 07:10:16;;;;;;;17.27;0.80;;;;;;;;;;5052337;28;20032;-45
2020/12/15 07:12:43;;;;;;;11.57;0.90;;;;;;;;;;5052132;28;20485;-44
2020/12/15 07:15:12;;;;;;;21.27;1.33;;;;;;;;;;5051870;28;20025;-44
2020/12/15 07:17:42;;;;;;;22.35;0.93;;;;;;;;;;5051580;28;20029;-44
2020/12/15 07:20:09;;;;;;;9.18;0.43;;;;;;;;;;5051823;28;20488;-42
2020/12/15 07:22:41;;;;;;;4.03;0.75;;;;;;;;;;5051966;28;20029;-45
2020/12/15 07:25:10;;;;;;;4.47;0.40;;;;;;;;;;5051540;28;20029;-44
2020/12/15 07:27:37;;;;;;;6.13;0.88;;;;;;;;;;5051541;28;20029;-44
2020/12/15 07:30:12;;;;;;;8.73;0.95;;;;;;;;;;5051533;28;20090;-43
2020/12/15 07:32:39;;;;;;;6.97;1.45;;;;;;;;;;5051352;28;20025;-47
2020/12/15 07:35:10;;;;;;;15.23;0.80;;;;;;;;;;5051414;28;20029;-43
2020/12/15 07:37:43;;;;;;;13.65;2.10;;;;;;;;;;5051978;28;20079;-43
2020/12/15 07:40:11;;;;;;;52.50;2.63;;;;;;;;;;5051392;28;20405;-43
2020/12/15 07:42:38;;;;;;;12.45;1.38;;;;;;;;;;5051420;28;20025;-45
2020/12/15 07:45:10;;;;;;;13.32;0.80;;;;;;;;;;5051141;28;20025;-45
2020/12/15 07:47:40;;;;;;;6.47;1.02;;;;;;;;;;5051351;28;20035;-46
2020/12/15 07:50:08;;;;;;;13.00;1.15;;;;;;;;;;5051370;28;20029;-45
2020/12/15 07:52:36;;;;;;;15.98;0.85;;;;;;;;;;5051422;28;20052;-45
2020/12/15 07:55:04;;;;;;;18.08;0.85;;;;;;;;;;5051182;28;20029;-46
2020/12/15 07:57:32;;;;;;;8.13;0.70;;;;;;;;;;5050076;28;20059;-45
2020/12/15 08:00:07;;;;;;;11.55;0.85;;;;;;;;;;5051239;28;20017;-47
2020/12/15 08:02:34;;;;;;;7.72;1.33;;;;;;;;;;5051479;28;20024;-47
2020/12/15 08:05:05;;;;;;;5.90;0.50;;;;;;;;;;5051489;28;20021;-44
2020/12/15 08:07:32;;;;;;;4.68;1.02;;;;;;;;;;5049956;28;20357;-45
2020/12/15 08:10:00;;;;;;;10.00;1.08;;;;;;;;;;5051431;28;20021;-46
2020/12/15 08:12:28;;;;;;;8.18;1.70;;;;;;;;;;5050924;28;20480;-44
2020/12/15 08:14:57;;;;;;;4.75;0.90;;;;;;;;;;5051473;28;20083;-46
2020/12/15 08:17:25;;;;;;;9.90;0.90;;;;;;;;;;5050892;28;20021;-45
2020/12/15 08:19:52;;;;;;;8.68;0.90;;;;;;;;;;5051493;28;20048;-47
2020/12/15 08:22:19;;;;;;;10.25;1.40;;;;;;;;;;5051071;28;20083;-48
2020/12/15 08:24:51;;;;;;;7.60;1.05;;;;;;;;;;5051058;28;20047;-48
2020/12/15 08:27:18;;;;;;;10.20;1.02;;;;;;;;;;5051190;28;20543;-48
2020/12/15 08:29:45;;;;;;;9.63;1.20;;;;;;;;;;5053553;28;20033;-50
2020/12/15 08:32:12;;;;;;;7.60;0.70;;;;;;;;;;5054894;28;20478;-48
2020/12/15 08:34:38;;;;;;;16.02;0.90;;;;;;;;;;5055057;28;20079;-49
2020/12/15 08:37:06;;;;;;;20.33;0.98;;;;;;;;;;5054350;28;20112;-46
2020/12/15 08:39:38;;;;;;;24.55;1.30;;;;;;;;;;5055130;28;20052;-48
2020/12/15 08:42:05;;;;;;;17.07;0.77;;;;;;;;;;5054620;28;20028;-50
2020/12/15 08:44:35;;;;;;;13.52;1.55;;;;;;;;;;5054993;28;20029;-47
2020/12/15 08:47:02;;;;;;;8.40;0.55;;;;;;;;;;5054188;28;20025;-48
2020/12/15 08:49:29;;;;;;;15.45;1.60;;;;;;;;;;5054514;28;20376;-45
2020/12/15 08:51:56;;;;;;;11.30;1.58;;;;;;;;;;5054860;28;20025;-48
2020/12/15 08:54:24;;;;;;;21.95;1.63;;;;;;;;;;5054353;28;20029;-49
2020/12/15 08:56:51;;;;;;;4.85;1.00;;;;;;;;;;5054843;28;20025;-45
2020/12/15 08:59:18;;;;;;;10.88;1.23;;;;;;;;;;5054033;28;20100;-46
2020/12/15 09:01:46;;;;;;;13.13;1.48;;;;;;;;;;5054984;28;20028;-46
2020/12/15 09:04:13;;;;;;;18.92;1.15;;;;;;;;;;5054433;28;20415;-47
2020/12/15 09:06:41;;;;;;;21.55;2.22;;;;;;;;;;5054605;28;20025;-46
2020/12/15 09:09:08;;;;;;;31.25;1.90;;;;;;;;;;5053981;28;20029;-47
2020/12/15 09:11:35;;;;;;;35.70;2.60;;;;;;;;;;5054803;28;20052;-46
2020/12/15 09:14:05;;;;;;;20.50;1.90;;;;;;;;;;5053875;28;20045;-45
2020/12/15 09:16:33;;;;;;;40.63;2.53;;;;;;;;;;5054363;28;20031;-46
2020/12/15 09:19:10;;;;;;;18.30;1.45;;;;;;;;;;5053992;28;20489;-46
2020/12/15 09:21:37;;;;;;;21.65;1.90;;;;;;;;;;5054512;28;20396;-45
2020/12/15 09:24:04;;;;;;;83.80;7.10;;;;;;;;;;5053180;28;20483;-46
2020/12/15 09:26:31;;;;;;;25.73;2.30;;;;;;;;;;5054532;28;20056;-47
2020/12/15 09:29:07;;;;;;;48.63;4.32;;;;;;;;;;5053970;28;20095;-48
2020/12/15 09:31:34;;;;;;;27.77;2.72;;;;;;;;;;5052799;28;20388;-47
2020/12/15 09:34:01;;;;;;;15.90;1.35;;;;;;;;;;5053569;28;20071;-47
2020/12/15 09:36:28;;;;;;;25.63;2.83;;;;;;;;;;5053766;28;20383;-44
2020/12/15 09:38:55;;;;;;;52.45;3.28;;;;;;;;;;5054096;28;20131;-48
2020/12/15 09:41:23;;;;;;;27.45;1.95;;;;;;;;;;5053470;28;20032;-47
2020/12/15 09:43:50;;;;;;;22.45;2.08;;;;;;;;;;5054245;28;20098;-45
2020/12/15 09:46:18;;;;;;;47.08;2.40;;;;;;;;;;5053477;28;20025;-46
2020/12/15 09:48:46;;;;;;;22.25;2.08;;;;;;;;;;5052939;28;20051;-46
2020/12/15 09:51:13;;;;;;;30.30;2.00;;;;;;;;;;5053628;28;20485;-45
2020/12/15 09:53:40;;;;;;;71.18;4.72;;;;;;;;;;5053837;28;20040;-46
2020/12/15 09:56:07;;;;;;;64.25;3.00;;;;;;;;;;5051912;28;20388;-47
2020/12/15 09:58:34;;;;;;;65.90;3.92;;;;;;;;;;5053211;28;20112;-45
2020/12/15 10:01:01;;;;;;;38.38;2.60;;;;;;;;;;5052988;28;20056;-44
2020/12/15 10:03:28;;;;;;;26.27;2.78;;;;;;;;;;5053113;28;20025;-45
2020/12/15 10:05:55;;;;;;;57.40;4.45;;;;;;;;;;5041773;28;20032;-46
2020/12/15 10:08:22;;;;;;;103.15;7.05;;;;;;;;;;5038670;28;20036;-50
2020/12/15 10:10:49;;;;;;;56.72;3.80;;;;;;;;;;5032400;28;20033;-50
2020/12/15 10:13:16;;;;;;;46.20;4.13;;;;;;;;;;5031787;28;20029;-50
2020/12/15 10:15:44;;;;;;;46.05;4.30;;;;;;;;;;5031328;28;20057;-58
2020/12/15 10:18:12;;;;;;;41.63;2.70;;;;;;;;;;5033513;28;20026;-49
2020/12/15 10:20:40;;;;;;;50.72;4.95;;;;;;;;;;5052567;28;20029;-47
2020/12/15 10:23:07;;;;;;;41.33;3.85;;;;;;;;;;5052468;28;20037;-49
2020/12/15 10:25:34;;;;;;;31.05;3.63;;;;;;;;;;5052481;28;20032;-48
2020/12/15 10:28:01;;;;;;;34.03;3.55;;;;;;;;;;5052019;28;20090;-48
2020/12/15 10:30:27;;;;;;;35.40;3.17;;;;;;;;;;5052656;28;20017;-55
2020/12/15 10:32:54;;;;;;;33.50;3.10;;;;;;;;;;5052151;28;20043;-50
2020/12/15 10:35:21;;;;;;;29.60;3.28;;;;;;;;;;5051954;28;20032;-49
2020/12/15 10:37:48;;;;;;;22.65;2.90;;;;;;;;;;5052013;28;20040;-56
2020/12/15 10:40:30;;;;;;;18.90;2.55;;;;;;;;;;5052556;28;20040;-48
2020/12/15 10:42:57;;;;;;;29.88;3.42;;;;;;;;;;5051547;28;20029;-49
2020/12/15 10:45:24;;;;;;;34.50;4.55;;;;;;;;;;5050454;28;20025;-47
2020/12/15 10:47:51;;;;;;;36.00;4.07;;;;;;;;;;5051348;28;20025;-49
2020/12/15 10:50:18;;;;;;;33.85;3.17;;;;;;;;;;5051758;28;20473;-55
2020/12/15 10:52:45;;;;;;;34.97;3.90;;;;;;;;;;5049971;28;20167;-46
2020/12/15 10:55:13;;;;;;;26.58;4.03;;;;;;;;;;5051354;28;20029;-52
2020/12/15 10:57:40;;;;;;;40.10;3.25;;;;;;;;;;5041632;28;20389;-49
2020/12/15 11:00:08;;;;;;;32.20;3.65;;;;;;;;;;5029353;28;20033;-43
2020/12/15 11:02:35;;;;;;;36.97;4.45;;;;;;;;;;5029114;28;20109;-46
2020/12/15 11:05:02;;;;;;;44.38;3.58;;;;;;;;;;5039805;28;20376;-46
2020/12/15 11:07:29;;;;;;;26.65;2.90;;;;;;;;;;5050446;28;20396;-45
2020/12/15 11:09:56;;;;;;;30.17;3.60;;;;;;;;;;5044714;28;20472;-49
2020/12/15 11:12:23;;;;;;;31.60;2.92;;;;;;;;;;5050832;28;20052;-49
2020/12/15 11:14:50;;;;;;;20.77;2.33;;;;;;;;;;5050250;28;20036;-45
2020/12/15 11:17:17;;;;;;;25.17;3.13;;;;;;;;;;5051389;28;20078;-50
2020/12/15 11:19:44;;;;;;;62.25;5.05;;;;;;;;;;5050384;28;20459;-46
2020/12/15 11:22:11;;;;;;;34.92;4.00;;;;;;;;;;5051970;28;20469;-47
2020/12/15 11:24:40;;;;;;;161.98;7.97;;;;;;;;;;5045027;28;20029;-45
2020/12/15 11:27:07;;;;;;;248.00;15.70;;;;;;;;;;5049982;28;20021;-46
2020/12/15 11:29:34;;;;;;;755.35;60.45;;;;;;;;;;5050515;28;20020;-50
2020/12/15 11:32:01;;;;;;;445.92;36.60;;;;;;;;;;5050419;28;20068;-47
2020/12/15 11:34:28;;;;;;;317.90;25.65;;;;;;;;;;5046261;28;20033;-50
2020/12/15 11:36:55;;;;;;;246.98;22.20;;;;;;;;;;5045566;28;20103;-45
2020/12/15 11:39:23;;;;;;;148.63;13.02;;;;;;;;;;5050496;28;20535;-47
2020/12/15 11:41:51;;;;;;;141.32;12.98;;;;;;;;;;5050664;28;20602;-45
2020/12/15 11:44:18;;;;;;;181.73;14.18;;;;;;;;;;5049488;28;20091;-45
2020/12/15 11:46:48;;;;;;;160.95;15.43;;;;;;;;;;5051254;28;20573;-45
2020/12/15 11:49:15;;;;;;;112.30;11.45;;;;;;;;;;5040758;28;20029;-44
2020/12/15 11:51:42;;;;;;;93.70;9.90;;;;;;;;;;5049917;28;20024;-45
2020/12/15 11:54:09;;;;;;;35.10;4.20;;;;;;;;;;5049564;28;20037;-44
2020/12/15 11:56:36;;;;;;;68.03;7.78;;;;;;;;;;5051307;28;20021;-42
2020/12/15 11:59:03;;;;;;;79.22;8.60;;;;;;;;;;5044889;28;20083;-48
2020/12/15 12:01:32;;;;;;;29.00;4.22;;;;;;;;;;5050045;28;20766;-45
2020/12/15 12:03:59;;;;;;;30.42;3.63;;;;;;;;;;5047313;28;20392;-42
2020/12/15 12:06:31;;;;;;;43.55;3.40;;;;;;;;;;5042205;28;20354;-45
2020/12/15 12:08:58;;;;;;;45.75;5.25;;;;;;;;;;5043888;28;20021;-47
2020/12/15 12:11:25;;;;;;;63.90;4.90;;;;;;;;;;5049676;28;20037;-47
2020/12/15 12:13:52;;;;;;;40.92;3.53;;;;;;;;;;5049140;28;20048;-51
2020/12/15 12:16:19;;;;;;;30.45;3.75;;;;;;;;;;5049806;28;20017;-46
2020/12/15 12:18:46;;;;;;;46.30;3.75;;;;;;;;;;5050324;28;20055;-46
2020/12/15 12:21:13;;;;;;;30.60;3.28;;;;;;;;;;5050152;28;20033;-46
2020/12/15 12:23:41;;;;;;;33.72;3.22;;;;;;;;;;5049321;28;20017;-47
2020/12/15 12:26:08;;;;;;;33.40;3.30;;;;;;;;;;5047773;28;20019;-45
2020/12/15 12:28:35;;;;;;;25.35;3.45;;;;;;;;;;5049835;28;20021;-45
2020/12/15 12:31:02;;;;;;;29.80;3.42;;;;;;;;;;5040897;28;20025;-45
2020/12/15 12:33:29;;;;;;;48.92;4.25;;;;;;;;;;5050113;28;20488;-45
2020/12/15 12:35:56;;;;;;;36.05;3.20;;;;;;;;;;5049552;28;20067;-46
2020/12/15 12:38:23;;;;;;;44.30;3.88;;;;;;;;;;5049923;28;20572;-47
2020/12/15 12:40:50;;;;;;;34.75;3.40;;;;;;;;;;5049898;28;20032;-47
2020/12/15 12:43:18;;;;;;;49.45;4.82;;;;;;;;;;5049290;28;20035;-47
2020/12/15 12:45:45;;;;;;;26.77;3.10;;;;;;;;;;5048119;28;20403;-47
2020/12/15 12:48:12;;;;;;;46.20;5.00;;;;;;;;;;5048539;28;20061;-45
2020/12/15 12:50:39;;;;;;;54.97;5.30;;;;;;;;;;5050225;28;20025;-45
2020/12/15 12:53:06;;;;;;;72.60;7.32;;;;;;;;;;5049491;28;20099;-44
2020/12/15 12:55:33;;;;;;;44.47;4.53;;;;;;;;;;5048829;28;20083;-49
2020/12/15 12:58:00;;;;;;;41.95;4.53;;;;;;;;;;5050806;28;20032;-46
2020/12/15 13:00:27;;;;;;;35.13;3.53;;;;;;;;;;5046088;28;20028;-47
2020/12/15 13:02:54;;;;;;;36.25;4.18;;;;;;;;;;5040814;28;20021;-46
2020/12/15 13:05:21;;;;;;;40.30;4.72;;;;;;;;;;5049849;28;20021;-47
2020/12/15 13:07:49;;;;;;;39.88;4.75;;;;;;;;;;5042601;28;20028;-42
2020/12/15 13:10:16;;;;;;;67.07;7.32;;;;;;;;;;5049214;28;20477;-46
2020/12/15 13:12:43;;;;;;;47.72;5.43;;;;;;;;;;5050513;28;20070;-45
2020/12/15 13:15:10;;;;;;;47.38;4.93;;;;;;;;;;5039283;28;20064;-47
2020/12/15 13:17:37;;;;;;;49.38;5.70;;;;;;;;;;5052281;28;20150;-49
2020/12/15 13:20:05;;;;;;;51.75;4.72;;;;;;;;;;5048745;28;20024;-47
2020/12/15 13:22:32;;;;;;;54.05;4.63;;;;;;;;;;5053461;28;20033;-45
2020/12/15 13:25:02;;;;;;;46.75;4.55;;;;;;;;;;5051798;28;20135;-51
2020/12/15 13:27:29;;;;;;;40.85;3.70;;;;;;;;;;5053072;28;20510;-53
2020/12/15 13:29:56;;;;;;;48.42;5.20;;;;;;;;;;5053854;28;20759;-47
2020/12/15 13:32:23;;;;;;;45.30;4.65;;;;;;;;;;5053515;28;20025;-49
2020/12/15 13:34:50;;;;;;;57.63;5.63;;;;;;;;;;5053265;28;20033;-50
2020/12/15 13:37:17;;;;;;;48.28;4.85;;;;;;;;;;5053262;28;20031;-53
2020/12/15 13:39:44;;;;;;;46.47;4.95;;;;;;;;;;5052859;28;20060;-48
2020/12/15 13:42:11;;;;;;;37.92;3.90;;;;;;;;;;5053516;28;20017;-47
2020/12/15 13:44:38;;;;;;;34.50;3.35;;;;;;;;;;5052701;28;20059;-51
2020/12/15 13:47:06;;;;;;;43.80;5.45;;;;;;;;;;5053491;28;20033;-48
2020/12/15 13:49:33;;;;;;;44.00;4.18;;;;;;;;;;5052906;28;20035;-52
2020/12/15 13:52:00;;;;;;;55.40;4.65;;;;;;;;;;5052728;28;20105;-47
2020/12/15 13:54:27;;;;;;;57.53;4.30;;;;;;;;;;5053108;28;20021;-52
2020/12/15 13:56:54;;;;;;;33.42;3.38;;;;;;;;;;5053405;28;20096;-49
2020/12/15 13:59:21;;;;;;;35.92;3.60;;;;;;;;;;5053247;28;20013;-49
2020/12/15 14:01:49;;;;;;;28.45;2.90;;;;;;;;;;5052667;28;20044;-52
2020/12/15 14:04:16;;;;;;;32.08;3.88;;;;;;;;;;5052551;28;20056;-49
2020/12/15 14:06:44;;;;;;;24.25;3.17;;;;;;;;;;5048580;28;20033;-50
2020/12/15 14:09:11;;;;;;;21.42;2.97;;;;;;;;;;5050228;28;20040;-48
2020/12/15 14:11:39;;;;;;;27.73;3.22;;;;;;;;;;5040915;28;20013;-49
2020/12/15 14:14:07;;;;;;;34.65;3.90;;;;;;;;;;5047863;28;20044;-51
2020/12/15 14:16:34;;;;;;;46.92;4.82;;;;;;;;;;5042487;28;20025;-50
2020/12/15 14:19:01;;;;;;;50.85;4.97;;;;;;;;;;5052810;28;20465;-48
2020/12/15 14:21:28;;;;;;;48.45;4.13;;;;;;;;;;5049262;28;20029;-49
2020/12/15 14:23:55;;;;;;;36.40;4.38;;;;;;;;;;5052770;28;20059;-48
2020/12/15 14:26:23;;;;;;;40.17;3.88;;;;;;;;;;5051630;28;20434;-54
2020/12/15 14:28:50;;;;;;;28.40;3.13;;;;;;;;;;5051918;28;20028;-49
2020/12/15 14:31:17;;;;;;;25.38;3.60;;;;;;;;;;5052358;28;20476;-51
2020/12/15 14:33:44;;;;;;;24.27;2.70;;;;;;;;;;5051205;28;20045;-56
2020/12/15 14:36:11;;;;;;;24.70;2.65;;;;;;;;;;5051971;28;20044;-48